sensor_id;sensor_type;location;lat;lon;timestamp;pressure;altitude;pressure_sealevel;temperature;humidity
71697;BME280;68167;59.120;37.898;2024-03-02T00:00:23;101435.63;;;2.17;85.75
71697;BME280;68167;59.120;37.898;2024-03-02T00:02:51;101505.16;;;2.55;86.11
71697;BME280;68167;59.120;37.898;2024-03-02T00:05:22;101440.56;;;2.20;85.63
71697;BME280;68167;59.120;37.898;2024-03-02T00:07:57;101324.84;;;1.47;85.81
71697;BME280;68167;59.120;37.898;2024-03-02T00:10:32;101513.03;;;2.63;85.72
71697;BME280;68167;59.120;37.898;2024-03-02T00:13:03;101454.03;;;2.25;85.90
71697;BME280;68167;59.120;37.898;2024-03-02T00:18:03;101506.97;;;2.55;85.25
71697;BME280;68167;59.120;37.898;2024-03-02T00:20:30;101443.16;;;2.12;85.39
71697;BME280;68167;59.120;37.898;2024-03-02T00:23:03;101428.19;;;2.05;85.28
71697;BME280;68167;59.120;37.898;2024-03-02T00:25:54;101514.38;;;2.59;86.11
71697;BME280;68167;59.120;37.898;2024-03-02T00:28:24;101474.09;;;2.43;86.32
71697;BME280;68167;59.120;37.898;2024-03-02T00:31:10;101525.56;;;2.78;86.35
71697;BME280;68167;59.120;37.898;2024-03-02T00:33:44;101510.75;;;2.69;86.22
71697;BME280;68167;59.120;37.898;2024-03-02T00:36:16;101440.41;;;2.30;86.29
71697;BME280;68167;59.120;37.898;2024-03-02T00:38:50;101509.09;;;2.68;86.35
71697;BME280;68167;59.120;37.898;2024-03-02T00:41:24;101430.88;;;2.29;86.23
71697;BME280;68167;59.120;37.898;2024-03-02T00:44:03;101523.44;;;2.81;85.51
71697;BME280;68167;59.120;37.898;2024-03-02T00:46:41;101441.88;;;2.33;85.84
71697;BME280;68167;59.120;37.898;2024-03-02T00:51:37;101503.03;;;2.67;85.29
71697;BME280;68167;59.120;37.898;2024-03-02T00:54:05;101515.03;;;2.78;85.99
71697;BME280;68167;59.120;37.898;2024-03-02T00:56:37;101404.75;;;2.11;85.74
71697;BME280;68167;59.120;37.898;2024-03-02T00:59:03;101455.72;;;2.43;85.84
71697;BME280;68167;59.120;37.898;2024-03-02T01:01:29;101504.50;;;2.70;86.01
71697;BME280;68167;59.120;37.898;2024-03-02T01:03:56;101483.16;;;2.56;85.62
71697;BME280;68167;59.120;37.898;2024-03-02T01:06:22;101510.28;;;2.81;85.44
71697;BME280;68167;59.120;37.898;2024-03-02T01:08:48;101492.84;;;2.64;84.88
71697;BME280;68167;59.120;37.898;2024-03-02T01:11:17;101519.78;;;2.74;85.14
71697;BME280;68167;59.120;37.898;2024-03-02T01:13:45;101515.38;;;2.75;85.60
71697;BME280;68167;59.120;37.898;2024-03-02T01:16:12;101487.41;;;2.49;85.01
71697;BME280;68167;59.120;37.898;2024-03-02T01:18:38;101512.56;;;2.68;85.79
71697;BME280;68167;59.120;37.898;2024-03-02T01:21:04;101509.75;;;2.70;85.17
71697;BME280;68167;59.120;37.898;2024-03-02T01:23:31;101497.59;;;2.60;85.13
71697;BME280;68167;59.120;37.898;2024-03-02T01:25:57;101517.66;;;2.70;85.22
71697;BME280;68167;59.120;37.898;2024-03-02T01:28:23;101491.88;;;2.57;85.32
71697;BME280;68167;59.120;37.898;2024-03-02T01:30:50;101505.16;;;2.63;85.33
71697;BME280;68167;59.120;37.898;2024-03-02T01:33:17;101439.25;;;2.24;85.77
71697;BME280;68167;59.120;37.898;2024-03-02T01:35:47;101378.47;;;1.87;85.93
71697;BME280;68167;59.120;37.898;2024-03-02T01:38:13;101445.50;;;2.31;85.69
71697;BME280;68167;59.120;37.898;2024-03-02T01:40:39;101512.72;;;2.75;85.51
71697;BME280;68167;59.120;37.898;2024-03-02T01:43:06;101513.06;;;2.72;85.87
71697;BME280;68167;59.120;37.898;2024-03-02T01:45:34;101469.34;;;2.46;85.98
71697;BME280;68167;59.120;37.898;2024-03-02T01:48:01;101528.84;;;2.88;85.45
71697;BME280;68167;59.120;37.898;2024-03-02T01:50:31;101448.47;;;2.37;85.83
71697;BME280;68167;59.120;37.898;2024-03-02T01:52:59;101535.59;;;2.90;86.33
71697;BME280;68167;59.120;37.898;2024-03-02T01:55:26;101430.56;;;2.32;86.30
71697;BME280;68167;59.120;37.898;2024-03-02T01:57:53;101455.72;;;2.51;86.01
71697;BME280;68167;59.120;37.898;2024-03-02T02:00:20;101472.81;;;2.55;85.56
71697;BME280;68167;59.120;37.898;2024-03-02T02:02:47;101521.44;;;2.83;85.67
71697;BME280;68167;59.120;37.898;2024-03-02T02:05:14;101422.34;;;2.35;85.91
71697;BME280;68167;59.120;37.898;2024-03-02T02:07:41;101522.13;;;2.93;85.81
71697;BME280;68167;59.120;37.898;2024-03-02T02:10:10;101521.63;;;2.90;85.46
71697;BME280;68167;59.120;37.898;2024-03-02T02:12:37;101503.53;;;2.79;85.57
71697;BME280;68167;59.120;37.898;2024-03-02T02:15:27;101528.03;;;2.95;85.34
71697;BME280;68167;59.120;37.898;2024-03-02T02:17:55;101529.84;;;2.95;85.41
71697;BME280;68167;59.120;37.898;2024-03-02T02:20:41;101538.56;;;2.95;85.12
71697;BME280;68167;59.120;37.898;2024-03-02T02:23:08;101503.19;;;2.74;85.08
71697;BME280;68167;59.120;37.898;2024-03-02T02:25:35;101511.44;;;2.87;85.64
71697;BME280;68167;59.120;37.898;2024-03-02T02:28:02;101464.59;;;2.58;85.37
71697;BME280;68167;59.120;37.898;2024-03-02T02:30:31;101458.81;;;2.62;85.62
71697;BME280;68167;59.120;37.898;2024-03-02T02:32:58;101525.25;;;2.97;84.77
71697;BME280;68167;59.120;37.898;2024-03-02T02:35:24;101472.31;;;2.68;84.88
71697;BME280;68167;59.120;37.898;2024-03-02T02:37:52;101489.91;;;2.75;85.07
71697;BME280;68167;59.120;37.898;2024-03-02T02:40:19;101452.94;;;2.52;84.58
71697;BME280;68167;59.120;37.898;2024-03-02T02:42:46;101456.38;;;2.45;84.97
71697;BME280;68167;59.120;37.898;2024-03-02T02:45:13;101495.47;;;2.72;85.16
71697;BME280;68167;59.120;37.898;2024-03-02T02:47:41;101536.25;;;2.92;85.33
71697;BME280;68167;59.120;37.898;2024-03-02T02:50:08;101506.00;;;2.72;85.08
71697;BME280;68167;59.120;37.898;2024-03-02T02:52:36;101459.31;;;2.42;84.60
71697;BME280;68167;59.120;37.898;2024-03-02T02:55:04;101530.66;;;2.87;84.58
71697;BME280;68167;59.120;37.898;2024-03-02T02:57:34;101471.00;;;2.55;85.23
71697;BME280;68167;59.120;37.898;2024-03-02T03:00:07;101531.97;;;2.91;85.29
71697;BME280;68167;59.120;37.898;2024-03-02T03:02:37;101502.38;;;2.81;86.11
71697;BME280;68167;59.120;37.898;2024-03-02T03:05:05;101499.28;;;2.86;85.53
71697;BME280;68167;59.120;37.898;2024-03-02T03:07:32;101503.03;;;2.83;85.47
71697;BME280;68167;59.120;37.898;2024-03-02T03:10:00;101516.03;;;2.93;85.51
71697;BME280;68167;59.120;37.898;2024-03-02T03:12:27;101434.38;;;2.46;84.97
71697;BME280;68167;59.120;37.898;2024-03-02T03:14:53;101433.03;;;2.42;84.79
71697;BME280;68167;59.120;37.898;2024-03-02T03:17:21;101436.00;;;2.47;85.02
71697;BME280;68167;59.120;37.898;2024-03-02T03:19:48;101502.88;;;2.85;84.74
71697;BME280;68167;59.120;37.898;2024-03-02T03:22:15;101495.97;;;2.76;85.12
71697;BME280;68167;59.120;37.898;2024-03-02T03:24:41;101510.44;;;2.88;85.23
71697;BME280;68167;59.120;37.898;2024-03-02T03:27:07;101476.75;;;2.67;84.95
71697;BME280;68167;59.120;37.898;2024-03-02T03:29:33;101519.81;;;2.90;85.09
71697;BME280;68167;59.120;37.898;2024-03-02T03:32:02;101486.94;;;2.78;84.84
71697;BME280;68167;59.120;37.898;2024-03-02T03:34:28;101334.78;;;1.78;84.58
71697;BME280;68167;59.120;37.898;2024-03-02T03:36:55;101411.19;;;2.33;84.69
71697;BME280;68167;59.120;37.898;2024-03-02T03:39:21;101520.31;;;3.02;84.94
71697;BME280;68167;59.120;37.898;2024-03-02T03:41:47;101507.81;;;2.96;85.02
71697;BME280;68167;59.120;37.898;2024-03-02T03:44:13;101522.13;;;3.02;85.19
71697;BME280;68167;59.120;37.898;2024-03-02T03:46:39;101436.50;;;2.50;84.70
71697;BME280;68167;59.120;37.898;2024-03-02T03:49:06;101512.44;;;2.94;84.54
71697;BME280;68167;59.120;37.898;2024-03-02T03:51:32;101509.97;;;2.92;85.23
71697;BME280;68167;59.120;37.898;2024-03-02T03:53:58;101445.38;;;2.57;84.89
71697;BME280;68167;59.120;37.898;2024-03-02T03:56:25;101421.06;;;2.39;85.00
71697;BME280;68167;59.120;37.898;2024-03-02T03:58:51;101499.13;;;2.95;85.37
71697;BME280;68167;59.120;37.898;2024-03-02T04:01:17;101528.38;;;3.09;85.00
71697;BME280;68167;59.120;37.898;2024-03-02T04:03:43;101514.91;;;3.04;84.84
71697;BME280;68167;59.120;37.898;2024-03-02T04:06:09;101461.44;;;2.62;84.93
71697;BME280;68167;59.120;37.898;2024-03-02T04:08:36;101502.22;;;2.99;84.90
71697;BME280;68167;59.120;37.898;2024-03-02T04:11:02;101523.44;;;3.14;85.19
71697;BME280;68167;59.120;37.898;2024-03-02T04:13:28;101504.88;;;2.99;85.14
71697;BME280;68167;59.120;37.898;2024-03-02T04:15:55;101466.88;;;2.77;84.99
71697;BME280;68167;59.120;37.898;2024-03-02T04:18:21;101463.44;;;2.77;84.60
71697;BME280;68167;59.120;37.898;2024-03-02T04:20:47;101512.91;;;3.06;85.15
71697;BME280;68167;59.120;37.898;2024-03-02T04:23:14;101513.91;;;3.05;85.02
71697;BME280;68167;59.120;37.898;2024-03-02T04:25:40;101502.22;;;2.99;84.74
71697;BME280;68167;59.120;37.898;2024-03-02T04:28:06;101493.69;;;2.89;84.39
71697;BME280;68167;59.120;37.898;2024-03-02T04:30:33;101460.63;;;2.70;84.90
71697;BME280;68167;59.120;37.898;2024-03-02T04:32:59;101527.22;;;3.11;84.68
71697;BME280;68167;59.120;37.898;2024-03-02T04:35:27;101440.09;;;2.65;85.39
71697;BME280;68167;59.120;37.898;2024-03-02T04:37:53;101452.59;;;2.72;84.61
71697;BME280;68167;59.120;37.898;2024-03-02T04:40:19;101511.28;;;3.05;85.13
71697;BME280;68167;59.120;37.898;2024-03-02T04:42:46;101507.00;;;3.04;85.06
71697;BME280;68167;59.120;37.898;2024-03-02T04:45:12;101503.56;;;3.03;84.96
71697;BME280;68167;59.120;37.898;2024-03-02T04:47:38;101530.50;;;3.13;84.54
71697;BME280;68167;59.120;37.898;2024-03-02T04:50:05;101510.47;;;3.04;84.85
71697;BME280;68167;59.120;37.898;2024-03-02T04:52:33;101517.69;;;3.10;84.79
71697;BME280;68167;59.120;37.898;2024-03-02T04:54:59;101543.69;;;3.21;84.25
71697;BME280;68167;59.120;37.898;2024-03-02T04:57:44;101452.75;;;2.70;84.67
71697;BME280;68167;59.120;37.898;2024-03-02T05:00:12;101414.31;;;2.45;84.58
71697;BME280;68167;59.120;37.898;2024-03-02T05:02:38;101504.69;;;3.09;85.00
71697;BME280;68167;59.120;37.898;2024-03-02T05:05:05;101493.03;;;2.95;84.35
71697;BME280;68167;59.120;37.898;2024-03-02T05:07:31;101500.44;;;2.91;84.71
71697;BME280;68167;59.120;37.898;2024-03-02T05:09:57;101518.19;;;2.97;83.96
71697;BME280;68167;59.120;37.898;2024-03-02T05:12:24;101452.44;;;2.57;84.36
71697;BME280;68167;59.120;37.898;2024-03-02T05:15:10;101511.41;;;2.79;84.48
71697;BME280;68167;59.120;37.898;2024-03-02T05:17:37;101488.56;;;2.71;84.55
71697;BME280;68167;59.120;37.898;2024-03-02T05:20:05;101479.69;;;2.64;84.40
71697;BME280;68167;59.120;37.898;2024-03-02T05:22:31;101520.81;;;2.89;84.54
71697;BME280;68167;59.120;37.898;2024-03-02T05:25:03;101452.56;;;2.39;84.45
71697;BME280;68167;59.120;37.898;2024-03-02T05:27:32;101526.56;;;2.85;84.48
71697;BME280;68167;59.120;37.898;2024-03-02T05:29:59;101530.50;;;2.81;84.15
71697;BME280;68167;59.120;37.898;2024-03-02T05:32:26;101440.72;;;2.27;84.42
71697;BME280;68167;59.120;37.898;2024-03-02T05:34:53;101506.00;;;2.72;85.16
71697;BME280;68167;59.120;37.898;2024-03-02T05:37:19;101500.41;;;2.67;84.87
71697;BME280;68167;59.120;37.898;2024-03-02T05:39:46;101493.81;;;2.63;84.30
71697;BME280;68167;59.120;37.898;2024-03-02T05:42:12;101473.47;;;2.49;84.39
71697;BME280;68167;59.120;37.898;2024-03-02T05:44:38;101500.72;;;2.64;84.57
71697;BME280;68167;59.120;37.898;2024-03-02T05:47:05;101536.56;;;2.81;84.65
71697;BME280;68167;59.120;37.898;2024-03-02T05:49:35;101519.13;;;2.72;85.00
71697;BME280;68167;59.120;37.898;2024-03-02T05:52:01;101531.16;;;2.83;84.97
71697;BME280;68167;59.120;37.898;2024-03-02T05:54:29;101516.50;;;2.72;85.57
71697;BME280;68167;59.120;37.898;2024-03-02T05:56:55;101523.75;;;2.78;85.51
71697;BME280;68167;59.120;37.898;2024-03-02T05:59:21;101507.47;;;2.67;85.25
71697;BME280;68167;59.120;37.898;2024-03-02T06:01:48;101464.25;;;2.45;85.36
71697;BME280;68167;59.120;37.898;2024-03-02T06:04:18;101537.72;;;2.87;85.35
71697;BME280;68167;59.120;37.898;2024-03-02T06:06:45;101548.41;;;2.93;85.09
71697;BME280;68167;59.120;37.898;2024-03-02T06:09:14;101526.72;;;2.91;85.72
71697;BME280;68167;59.120;37.898;2024-03-02T06:11:42;101507.31;;;2.84;85.73
71697;BME280;68167;59.120;37.898;2024-03-02T06:14:13;101520.31;;;2.94;85.80
71697;BME280;68167;59.120;37.898;2024-03-02T06:16:40;101452.59;;;2.63;86.11
71697;BME280;68167;59.120;37.898;2024-03-02T06:19:06;101554.69;;;3.25;85.49
71697;BME280;68167;59.120;37.898;2024-03-02T06:21:33;101545.28;;;3.30;85.32
71697;BME280;68167;59.120;37.898;2024-03-02T06:23:59;101476.44;;;2.86;85.17
71697;BME280;68167;59.120;37.898;2024-03-02T06:26:25;101528.38;;;3.25;85.88
71697;BME280;68167;59.120;37.898;2024-03-02T06:28:52;101466.56;;;2.80;85.73
71697;BME280;68167;59.120;37.898;2024-03-02T06:31:18;101530.31;;;3.39;85.38
71697;BME280;68167;59.120;37.898;2024-03-02T06:33:44;101560.56;;;3.68;85.98
71697;BME280;68167;59.120;37.898;2024-03-02T06:36:14;101570.09;;;3.77;85.29
71697;BME280;68167;59.120;37.898;2024-03-02T06:38:41;101518.59;;;3.58;85.80
71697;BME280;68167;59.120;37.898;2024-03-02T06:41:08;101491.00;;;3.46;85.36
71697;BME280;68167;59.120;37.898;2024-03-02T06:43:35;101558.38;;;3.87;85.80
71697;BME280;68167;59.120;37.898;2024-03-02T06:46:09;101549.81;;;3.85;85.53
71697;BME280;68167;59.120;37.898;2024-03-02T06:48:35;101566.22;;;3.95;85.53
71697;BME280;68167;59.120;37.898;2024-03-02T06:51:01;101459.41;;;3.38;84.91
71697;BME280;68167;59.120;37.898;2024-03-02T06:53:28;101523.97;;;3.81;85.32
71697;BME280;68167;59.120;37.898;2024-03-02T06:55:57;101494.75;;;3.59;85.72
71697;BME280;68167;59.120;37.898;2024-03-02T06:58:24;101360.88;;;2.85;79.41
71697;BME280;68167;59.120;37.898;2024-03-02T07:00:50;101424.22;;;3.39;81.59
71697;BME280;68167;59.120;37.898;2024-03-02T07:03:17;101572.38;;;4.27;82.68
71697;BME280;68167;59.120;37.898;2024-03-02T07:05:43;101511.63;;;3.89;83.63
71697;BME280;68167;59.120;37.898;2024-03-02T07:08:13;101493.88;;;3.75;83.41
71697;BME280;68167;59.120;37.898;2024-03-02T07:10:39;101562.56;;;4.13;84.10
71697;BME280;68167;59.120;37.898;2024-03-02T07:13:06;101583.75;;;4.27;84.17
71697;BME280;68167;59.120;37.898;2024-03-02T07:15:32;101493.06;;;3.75;84.51
71697;BME280;68167;59.120;37.898;2024-03-02T07:18:17;101566.31;;;4.18;84.55
71697;BME280;68167;59.120;37.898;2024-03-02T07:20:43;101454.78;;;3.56;84.56
71697;BME280;68167;59.120;37.898;2024-03-02T07:23:09;101409.59;;;3.28;84.13
71697;BME280;68167;59.120;37.898;2024-03-02T07:25:36;101523.44;;;3.93;84.26
71697;BME280;68167;59.120;37.898;2024-03-02T07:28:02;101564.81;;;4.24;84.44
71697;BME280;68167;59.120;37.898;2024-03-02T07:30:30;101593.09;;;4.38;84.78
71697;BME280;68167;59.120;37.898;2024-03-02T07:32:56;101580.41;;;4.42;84.25
71697;BME280;68167;59.120;37.898;2024-03-02T07:35:22;101493.63;;;3.93;84.50
71697;BME280;68167;59.120;37.898;2024-03-02T07:37:53;101595.94;;;4.59;85.12
71697;BME280;68167;59.120;37.898;2024-03-02T07:40:20;101587.94;;;4.53;84.37
71697;BME280;68167;59.120;37.898;2024-03-02T07:42:47;101506.44;;;4.04;84.41
71697;BME280;68167;59.120;37.898;2024-03-02T07:45:13;101532.06;;;4.18;84.50
71697;BME280;68167;59.120;37.898;2024-03-02T07:47:40;101592.66;;;4.57;84.72
71697;BME280;68167;59.120;37.898;2024-03-02T07:50:07;101574.97;;;4.43;84.31
71697;BME280;68167;59.120;37.898;2024-03-02T07:52:33;101519.75;;;4.11;84.15
71697;BME280;68167;59.120;37.898;2024-03-02T07:54:59;101508.25;;;4.04;83.87
71697;BME280;68167;59.120;37.898;2024-03-02T07:57:26;101557.06;;;4.30;84.75
71697;BME280;68167;59.120;37.898;2024-03-02T07:59:52;101595.44;;;4.64;84.91
71697;BME280;68167;59.120;37.898;2024-03-02T08:02:19;101535.78;;;4.32;84.97
71697;BME280;68167;59.120;37.898;2024-03-02T08:04:46;101601.47;;;4.73;84.23
71697;BME280;68167;59.120;37.898;2024-03-02T08:07:12;101607.25;;;4.76;84.34
71697;BME280;68167;59.120;37.898;2024-03-02T08:09:38;101496.03;;;4.11;83.80
71697;BME280;68167;59.120;37.898;2024-03-02T08:12:05;101597.84;;;4.74;84.29
71697;BME280;68167;59.120;37.898;2024-03-02T08:14:34;101509.50;;;4.16;84.09
71697;BME280;68167;59.120;37.898;2024-03-02T08:17:01;101593.78;;;4.63;83.63
71697;BME280;68167;59.120;37.898;2024-03-02T08:19:30;101530.03;;;4.28;83.78
71697;BME280;68167;59.120;37.898;2024-03-02T08:21:57;101531.81;;;4.36;83.37
71697;BME280;68167;59.120;37.898;2024-03-02T08:24:25;101469.56;;;3.96;83.90
71697;BME280;68167;59.120;37.898;2024-03-02T08:26:55;101589.63;;;4.69;83.47
71697;BME280;68167;59.120;37.898;2024-03-02T08:29:21;101620.38;;;4.84;83.79
71697;BME280;68167;59.120;37.898;2024-03-02T08:31:48;101593.44;;;4.66;83.75
71697;BME280;68167;59.120;37.898;2024-03-02T08:34:18;101571.47;;;4.51;83.17
71697;BME280;68167;59.120;37.898;2024-03-02T08:36:53;101503.91;;;4.19;83.82
71697;BME280;68167;59.120;37.898;2024-03-02T08:39:22;101596.16;;;4.81;84.50
71697;BME280;68167;59.120;37.898;2024-03-02T08:41:52;101574.47;;;4.71;83.47
71697;BME280;68167;59.120;37.898;2024-03-02T08:44:22;101559.66;;;4.61;83.65
71697;BME280;68167;59.120;37.898;2024-03-02T08:46:49;101602.34;;;4.96;83.53
71697;BME280;68167;59.120;37.898;2024-03-02T08:49:15;101522.69;;;4.47;83.86
71697;BME280;68167;59.120;37.898;2024-03-02T08:51:41;101458.31;;;4.10;83.60
71697;BME280;68167;59.120;37.898;2024-03-02T08:54:08;101587.69;;;4.93;83.11
71697;BME280;68167;59.120;37.898;2024-03-02T08:56:35;101602.13;;;5.06;83.98
71697;BME280;68167;59.120;37.898;2024-03-02T08:59:05;101597.47;;;5.08;83.55
71697;BME280;68167;59.120;37.898;2024-03-02T09:01:34;101587.16;;;4.98;83.20
71697;BME280;68167;59.120;37.898;2024-03-02T09:04:03;101593.91;;;5.01;83.15
71697;BME280;68167;59.120;37.898;2024-03-02T09:06:29;101592.44;;;4.98;83.41
71697;BME280;68167;59.120;37.898;2024-03-02T09:08:58;101538.53;;;4.70;83.09
71697;BME280;68167;59.120;37.898;2024-03-02T09:11:27;101606.22;;;5.08;82.25
71697;BME280;68167;59.120;37.898;2024-03-02T09:13:55;101608.81;;;5.16;82.55
71697;BME280;68167;59.120;37.898;2024-03-02T09:16:23;101576.25;;;5.01;82.59
71697;BME280;68167;59.120;37.898;2024-03-02T09:18:53;101542.88;;;4.85;82.28
71697;BME280;68167;59.120;37.898;2024-03-02T09:21:19;101556.66;;;4.95;83.04
71697;BME280;68167;59.120;37.898;2024-03-02T09:23:45;101499.66;;;4.63;75.41
71697;BME280;68167;59.120;37.898;2024-03-02T09:26:15;101597.47;;;5.30;79.93
71697;BME280;68167;59.120;37.898;2024-03-02T09:28:46;101549.34;;;5.06;80.57
71697;BME280;68167;59.120;37.898;2024-03-02T09:31:15;101536.56;;;4.94;80.73
71697;BME280;68167;59.120;37.898;2024-03-02T09:33:41;101527.16;;;4.92;81.31
71697;BME280;68167;59.120;37.898;2024-03-02T09:36:18;101358.88;;;3.81;81.46
71697;BME280;68167;59.120;37.898;2024-03-02T09:38:45;101569.81;;;5.04;81.42
71697;BME280;68167;59.120;37.898;2024-03-02T09:41:11;101585.59;;;5.12;81.98
71697;BME280;68167;59.120;37.898;2024-03-02T09:43:41;101596.13;;;5.12;82.06
71697;BME280;68167;59.120;37.898;2024-03-02T09:46:11;101574.59;;;5.00;81.86
71697;BME280;68167;59.120;37.898;2024-03-02T09:48:39;101579.41;;;4.96;81.57
71697;BME280;68167;59.120;37.898;2024-03-02T09:51:06;101602.59;;;5.09;81.53
71697;BME280;68167;59.120;37.898;2024-03-02T09:53:33;101594.38;;;5.04;81.69
71697;BME280;68167;59.120;37.898;2024-03-02T09:56:03;101397.09;;;3.77;81.93
71697;BME280;68167;59.120;37.898;2024-03-02T09:58:30;101583.47;;;5.07;81.72
71697;BME280;68167;59.120;37.898;2024-03-02T10:00:56;101577.19;;;5.08;81.78
71697;BME280;68167;59.120;37.898;2024-03-02T10:03:23;101590.97;;;5.18;81.56
71697;BME280;68167;59.120;37.898;2024-03-02T10:05:53;101574.25;;;5.03;81.00
71697;BME280;68167;59.120;37.898;2024-03-02T10:08:19;101589.50;;;5.16;80.98
71697;BME280;68167;59.120;37.898;2024-03-02T10:10:48;101600.53;;;5.19;81.19
71697;BME280;68167;59.120;37.898;2024-03-02T10:13:17;101559.00;;;4.90;81.03
71697;BME280;68167;59.120;37.898;2024-03-02T10:15:44;101576.44;;;5.00;81.22
71697;BME280;68167;59.120;37.898;2024-03-02T10:18:13;101521.28;;;4.59;80.93
71697;BME280;68167;59.120;37.898;2024-03-02T10:20:41;101462.38;;;4.21;80.77
71697;BME280;68167;59.120;37.898;2024-03-02T10:23:12;101511.63;;;4.51;81.61
71697;BME280;68167;59.120;37.898;2024-03-02T10:25:39;101494.22;;;4.42;81.32
71697;BME280;68167;59.120;37.898;2024-03-02T10:28:06;101579.47;;;4.88;81.13
71697;BME280;68167;59.120;37.898;2024-03-02T10:30:33;101532.81;;;4.58;81.11
71697;BME280;68167;59.120;37.898;2024-03-02T10:33:01;101573.59;;;4.78;81.30
71697;BME280;68167;59.120;37.898;2024-03-02T10:35:28;101601.03;;;4.92;81.53
71697;BME280;68167;59.120;37.898;2024-03-02T10:37:55;101472.78;;;4.14;81.22
71697;BME280;68167;59.120;37.898;2024-03-02T10:40:26;101589.06;;;4.81;80.89
71697;BME280;68167;59.120;37.898;2024-03-02T10:42:55;101567.41;;;4.63;81.10
71697;BME280;68167;59.120;37.898;2024-03-02T10:45:23;101571.53;;;4.66;80.81
71697;BME280;68167;59.120;37.898;2024-03-02T10:47:50;101517.03;;;4.27;80.76
71697;BME280;68167;59.120;37.898;2024-03-02T10:50:17;101555.16;;;4.47;81.12
71697;BME280;68167;59.120;37.898;2024-03-02T10:52:43;101606.59;;;4.74;81.36
71697;BME280;68167;59.120;37.898;2024-03-02T10:55:10;101607.94;;;4.70;80.96
71697;BME280;68167;59.120;37.898;2024-03-02T10:57:50;101600.84;;;4.71;80.97
71697;BME280;68167;59.120;37.898;2024-03-02T11:00:18;101569.91;;;4.56;80.85
71697;BME280;68167;59.120;37.898;2024-03-02T11:02:52;101538.59;;;4.30;80.93
71697;BME280;68167;59.120;37.898;2024-03-02T11:05:28;101594.13;;;4.60;81.23
71697;BME280;68167;59.120;37.898;2024-03-02T11:08:01;101440.59;;;3.65;81.09
71697;BME280;68167;59.120;37.898;2024-03-02T11:10:41;101607.44;;;4.67;81.13
71697;BME280;68167;59.120;37.898;2024-03-02T11:13:12;101588.28;;;4.50;81.50
71697;BME280;68167;59.120;37.898;2024-03-02T11:15:40;101567.25;;;4.34;81.54
71697;BME280;68167;59.120;37.898;2024-03-02T11:18:11;101608.66;;;4.56;81.01
71697;BME280;68167;59.120;37.898;2024-03-02T11:20:39;101596.19;;;4.50;80.47
71697;BME280;68167;59.120;37.898;2024-03-02T11:23:09;101613.41;;;4.60;81.50
71697;BME280;68167;59.120;37.898;2024-03-02T11:25:36;101524.03;;;4.12;80.99
71697;BME280;68167;59.120;37.898;2024-03-02T11:28:04;101468.19;;;3.77;80.13
71697;BME280;68167;59.120;37.898;2024-03-02T11:33:05;101517.00;;;3.96;79.74
71697;BME280;68167;59.120;37.898;2024-03-02T11:35:43;101606.41;;;4.45;80.90
71697;BME280;68167;59.120;37.898;2024-03-02T11:38:13;101615.47;;;4.50;80.58
71697;BME280;68167;59.120;37.898;2024-03-02T11:40:39;101606.59;;;4.43;80.11
71697;BME280;68167;59.120;37.898;2024-03-02T11:43:06;101598.38;;;4.38;79.88
71697;BME280;68167;59.120;37.898;2024-03-02T11:45:35;101544.47;;;4.02;80.77
71697;BME280;68167;59.120;37.898;2024-03-02T11:48:06;101569.28;;;4.23;81.10
71697;BME280;68167;59.120;37.898;2024-03-02T11:50:35;101610.19;;;4.50;80.30
71697;BME280;68167;59.120;37.898;2024-03-02T11:53:08;101601.66;;;4.40;80.51
71697;BME280;68167;59.120;37.898;2024-03-02T11:55:36;101587.53;;;4.33;80.24
71697;BME280;68167;59.120;37.898;2024-03-02T11:58:09;101607.56;;;4.50;80.17
71697;BME280;68167;59.120;37.898;2024-03-02T12:00:35;101611.84;;;4.51;80.84
71697;BME280;68167;59.120;37.898;2024-03-02T12:03:04;101547.41;;;4.15;80.65
71697;BME280;68167;59.120;37.898;2024-03-02T12:05:31;101594.75;;;4.39;80.37
71697;BME280;68167;59.120;37.898;2024-03-02T12:07:59;101617.31;;;4.42;79.66
71697;BME280;68167;59.120;37.898;2024-03-02T12:10:26;101559.78;;;4.06;79.32
71697;BME280;68167;59.120;37.898;2024-03-02T12:13:04;101537.13;;;3.89;80.37
71697;BME280;68167;59.120;37.898;2024-03-02T12:15:32;101591.34;;;4.22;80.30
71697;BME280;68167;59.120;37.898;2024-03-02T12:18:01;101532.03;;;3.87;80.85
71697;BME280;68167;59.120;37.898;2024-03-02T12:20:28;101483.06;;;3.54;80.21
71697;BME280;68167;59.120;37.898;2024-03-02T12:22:57;101585.28;;;4.14;79.89
71697;BME280;68167;59.120;37.898;2024-03-02T12:25:28;101588.09;;;4.12;80.02
71697;BME280;68167;59.120;37.898;2024-03-02T12:27:55;101547.03;;;3.87;79.62
71697;BME280;68167;59.120;37.898;2024-03-02T12:30:26;101573.47;;;4.02;79.73
71697;BME280;68167;59.120;37.898;2024-03-02T12:32:53;101582.66;;;4.06;79.92
71697;BME280;68167;59.120;37.898;2024-03-02T12:35:20;101548.19;;;3.84;79.59
71697;BME280;68167;59.120;37.898;2024-03-02T12:37:48;101537.00;;;3.74;79.41
71697;BME280;68167;59.120;37.898;2024-03-02T12:40:19;101524.69;;;3.67;79.52
71697;BME280;68167;59.120;37.898;2024-03-02T12:42:46;101528.44;;;3.72;80.27
71697;BME280;68167;59.120;37.898;2024-03-02T12:45:13;101581.69;;;4.07;80.12
71697;BME280;68167;59.120;37.898;2024-03-02T12:47:40;101540.63;;;3.81;79.74
71697;BME280;68167;59.120;37.898;2024-03-02T12:50:08;101472.44;;;3.31;79.99
71697;BME280;68167;59.120;37.898;2024-03-02T12:52:34;101605.38;;;4.15;80.33
71697;BME280;68167;59.120;37.898;2024-03-02T12:55:01;101518.59;;;3.66;80.12
71697;BME280;68167;59.120;37.898;2024-03-02T12:57:34;101603.03;;;4.20;80.32
71697;BME280;68167;59.120;37.898;2024-03-02T13:00:04;101515.78;;;3.68;79.99
71697;BME280;68167;59.120;37.898;2024-03-02T13:02:42;101532.91;;;3.72;80.35